New Haven Heights, Indiana
Current Conditions -  °F | °C
As of 7:54 AM on Wednesday 22 Oct 2014 (Local Time) from KFWA Reporting Station
Broken Clouds Broken Clouds  
Wind Chill: 36°   Ceiling: 2700
Heat Index: 40°   Visibility: 10mi
Dew Point: 37°   Wind: 6mph
Humidity: 89%   Direction: 350°N
Pressure: 30.31"   Gusts: NA
Location:  41.0925°N, 84.9712°W
Report Text: KFWA 221154Z 35005KT 10SM BKN027 04/03 A3031 RMK AO2 SLP269 T00440028 10044 20022 51016
Loading
Personal Weather Stations






























Interactive Weather Map
Tropical Storm Tracking
New forecast layout! Learn more

10-Day Weather Forecast

Advertisements
Track Severe Weather on mobile